Time;durP1;ratioP1;P1;durP2;ratioP2;P2;SDS_P1;SDS_P2;PMS_P1;PMS_P2;Temp;Humidity;BMP_temperature;BMP_pressure;BME280_temperature;BME280_humidity;BME280_pressure;Samples;Min_cycle;Max_cycle;Signal;HPM_P1;HPM_P2
2024/01/19 00:00:46;;;;;;;21.90;13.10;;;-0.50;99.90;;;;;;5070022;28;20469;-76
2024/01/19 00:03:12;;;;;;;21.48;12.75;;;-0.70;99.90;;;;;;5070195;28;20047;-76
2024/01/19 00:05:37;;;;;;;16.02;11.95;;;-0.70;99.90;;;;;;5069499;28;20029;-76
2024/01/19 00:08:04;;;;;;;21.00;13.00;;;-0.70;99.90;;;;;;5069952;28;20424;-76
2024/01/19 00:10:33;;;;;;;18.60;13.38;;;-0.60;99.90;;;;;;5069337;28;20033;-77
2024/01/19 00:12:59;;;;;;;23.67;12.93;;;-0.80;99.90;;;;;;5070172;28;20028;-76
2024/01/19 00:15:25;;;;;;;23.00;12.63;;;-0.70;99.90;;;;;;5070124;28;20064;-76
2024/01/19 00:17:51;;;;;;;18.25;12.23;;;-0.80;99.90;;;;;;5069993;28;20494;-76
2024/01/19 00:20:17;;;;;;;19.92;12.68;;;-0.90;99.90;;;;;;5069903;28;20040;-76
2024/01/19 00:22:43;;;;;;;22.35;14.20;;;-0.90;99.90;;;;;;5051357;28;20455;-75
2024/01/19 00:25:09;;;;;;;23.20;13.73;;;-1.00;99.90;;;;;;5069800;28;20526;-78
2024/01/19 00:27:34;;;;;;;24.45;14.70;;;-1.00;99.90;;;;;;5069472;28;20052;-78
2024/01/19 00:30:00;;;;;;;36.30;21.63;;;-1.10;99.90;;;;;;5070168;28;20036;-75
2024/01/19 00:32:26;;;;;;;32.90;20.85;;;-1.20;99.90;;;;;;5069504;28;20032;-75
2024/01/19 00:34:52;;;;;;;24.95;17.15;;;-1.30;99.90;;;;;;5069275;28;20043;-76
2024/01/19 00:37:18;;;;;;;23.88;15.77;;;-1.30;99.90;;;;;;5069404;28;20020;-76
2024/01/19 00:39:43;;;;;;;27.92;16.40;;;-1.40;99.90;;;;;;5069651;28;20107;-77
2024/01/19 00:42:09;;;;;;;32.95;17.98;;;-1.40;99.90;;;;;;5069712;28;20119;-77
2024/01/19 00:44:35;;;;;;;30.70;18.35;;;-1.40;99.90;;;;;;5069553;28;20028;-77
2024/01/19 00:47:00;;;;;;;28.60;16.48;;;-1.40;99.90;;;;;;5070146;28;20028;-77
2024/01/19 00:49:26;;;;;;;21.00;13.88;;;-1.40;99.90;;;;;;5070018;28;20169;-77
2024/01/19 00:51:52;;;;;;;22.48;13.30;;;-1.30;99.90;;;;;;5069998;28;20020;-77
2024/01/19 00:54:18;;;;;;;22.25;14.52;;;-1.30;99.90;;;;;;5070073;28;20040;-77
2024/01/19 00:56:43;;;;;;;22.13;13.50;;;-1.20;99.90;;;;;;5051403;28;20124;-77
2024/01/19 00:59:09;;;;;;;21.63;12.60;;;-1.20;99.90;;;;;;5070583;28;20044;-77
2024/01/19 01:01:35;;;;;;;17.00;10.02;;;-1.10;99.90;;;;;;5069938;28;20104;-77
2024/01/19 01:04:02;;;;;;;15.77;9.77;;;-1.10;99.90;;;;;;5073284;28;20070;-77
2024/01/19 01:06:28;;;;;;;12.30;8.75;;;-1.10;99.90;;;;;;5073421;28;20102;-77
2024/01/19 01:08:54;;;;;;;14.38;8.73;;;-0.90;99.90;;;;;;5072954;28;20029;-77
2024/01/19 01:11:21;;;;;;;13.23;7.45;;;-0.80;99.90;;;;;;5073339;28;20021;-77
2024/01/19 01:13:47;;;;;;;12.43;7.25;;;-0.80;99.90;;;;;;5072681;28;20066;-77
2024/01/19 01:16:13;;;;;;;11.50;7.30;;;-0.70;99.90;;;;;;5073180;28;20028;-77
2024/01/19 01:18:39;;;;;;;10.57;6.82;;;-0.60;99.90;;;;;;5072650;28;20165;-77
2024/01/19 01:21:06;;;;;;;11.02;6.28;;;-0.50;99.90;;;;;;5073128;28;20024;-77
2024/01/19 01:23:32;;;;;;;14.25;6.43;;;-0.50;99.90;;;;;;5072630;28;20028;-78
2024/01/19 01:25:57;;;;;;;10.43;6.90;;;-0.50;99.90;;;;;;5072818;28;20158;-77
2024/01/19 01:28:23;;;;;;;8.35;6.25;;;-0.40;99.90;;;;;;5073084;28;20143;-77
2024/01/19 01:30:49;;;;;;;12.07;7.03;;;-0.50;99.90;;;;;;5053775;28;20031;-77
2024/01/19 01:33:14;;;;;;;9.40;6.35;;;-0.30;99.90;;;;;;5073100;28;20377;-77
2024/01/19 01:35:40;;;;;;;10.60;6.57;;;-0.30;99.90;;;;;;5072222;28;20037;-77
2024/01/19 01:38:06;;;;;;;11.73;7.25;;;-0.40;99.90;;;;;;5053241;28;20119;-77
2024/01/19 01:40:32;;;;;;;11.05;6.38;;;-0.40;99.90;;;;;;5072477;28;20116;-77
2024/01/19 01:43:00;;;;;;;12.75;6.35;;;-0.40;99.90;;;;;;5072305;28;20029;-77
2024/01/19 01:45:27;;;;;;;12.13;6.68;;;-0.40;99.90;;;;;;5073407;28;20028;-77
2024/01/19 01:47:53;;;;;;;9.80;5.55;;;-0.40;99.90;;;;;;5072513;28;20051;-77
2024/01/19 01:50:19;;;;;;;8.32;6.25;;;-0.40;99.90;;;;;;5072819;28;20351;-77
2024/01/19 01:52:45;;;;;;;11.25;7.03;;;-0.40;99.90;;;;;;5071773;28;20456;-77
2024/01/19 01:55:12;;;;;;;8.82;5.47;;;-0.50;99.90;;;;;;5071933;28;20066;-77
2024/01/19 01:57:39;;;;;;;8.50;4.82;;;-0.40;99.90;;;;;;5071882;28;20047;-77
2024/01/19 02:00:08;;;;;;;8.98;3.88;;;-0.40;99.90;;;;;;5072841;28;20025;-77
2024/01/19 02:02:34;;;;;;;9.07;4.95;;;-0.40;99.90;;;;;;5071926;28;20409;-78
2024/01/19 02:05:00;;;;;;;8.75;4.63;;;-0.30;99.90;;;;;;5072313;28;20028;-77
2024/01/19 02:07:26;;;;;;;7.88;3.83;;;-0.30;99.90;;;;;;5072375;28;20055;-77
2024/01/19 02:09:52;;;;;;;9.30;3.95;;;-0.20;99.90;;;;;;5071454;28;20041;-77
2024/01/19 02:12:17;;;;;;;7.22;3.58;;;-0.20;99.90;;;;;;5072759;28;20035;-77
2024/01/19 02:14:43;;;;;;;12.05;5.18;;;-0.20;99.90;;;;;;5071902;28;20067;-77
2024/01/19 02:17:09;;;;;;;11.82;5.20;;;-0.20;99.90;;;;;;5072100;28;20121;-77
2024/01/19 02:19:35;;;;;;;9.35;4.05;;;-0.20;99.90;;;;;;5072192;28;20322;-77
2024/01/19 02:22:02;;;;;;;5.38;3.28;;;-0.20;99.90;;;;;;5072049;28;20032;-77
2024/01/19 02:24:29;;;;;;;5.40;4.07;;;-0.20;99.90;;;;;;5072045;28;20039;-77
2024/01/19 02:26:55;;;;;;;7.20;3.33;;;-0.20;99.90;;;;;;5071722;28;20056;-77
2024/01/19 02:29:21;;;;;;;6.28;3.13;;;-0.20;99.90;;;;;;5071641;28;20112;-77
2024/01/19 02:31:47;;;;;;;7.55;3.83;;;-0.10;99.90;;;;;;5071147;28;20071;-77
2024/01/19 02:34:13;;;;;;;6.22;3.22;;;-0.10;99.90;;;;;;5053723;28;20028;-77
2024/01/19 02:36:38;;;;;;;9.80;3.25;;;-0.10;99.90;;;;;;5071312;28;20032;-77
2024/01/19 02:39:07;;;;;;;6.57;3.35;;;-0.10;99.90;;;;;;5071565;28;20078;-77
2024/01/19 02:41:33;;;;;;;8.85;3.28;;;-0.10;99.90;;;;;;5071673;28;20040;-77
2024/01/19 02:43:59;;;;;;;4.22;2.80;;;0.00;99.90;;;;;;5071052;28;20469;-77
2024/01/19 02:46:24;;;;;;;9.75;3.47;;;0.00;99.90;;;;;;5053501;28;20056;-77
2024/01/19 02:48:50;;;;;;;5.13;2.63;;;-0.10;99.90;;;;;;5052602;28;20487;-77
2024/01/19 02:51:16;;;;;;;6.75;3.60;;;-0.10;99.90;;;;;;5071163;28;20039;-78
2024/01/19 02:53:41;;;;;;;7.60;3.47;;;0.00;99.90;;;;;;5070440;28;20056;-77
2024/01/19 02:56:07;;;;;;;10.27;4.78;;;-0.10;99.90;;;;;;5070834;28;20072;-77
2024/01/19 02:58:34;;;;;;;7.97;4.28;;;-0.10;99.90;;;;;;5071190;28;20081;-77
2024/01/19 03:01:00;;;;;;;9.38;3.85;;;-0.10;99.90;;;;;;5070425;28;20029;-77
2024/01/19 03:03:26;;;;;;;6.78;3.90;;;0.00;99.90;;;;;;5071182;28;20032;-77
2024/01/19 03:05:51;;;;;;;4.85;3.42;;;0.00;99.90;;;;;;5052412;28;20054;-77
2024/01/19 03:08:17;;;;;;;5.47;3.30;;;0.00;99.90;;;;;;5070727;28;20047;-77
2024/01/19 03:10:43;;;;;;;8.50;2.97;;;-0.10;99.90;;;;;;5070321;28;20028;-78
2024/01/19 03:13:09;;;;;;;8.00;3.40;;;-0.10;99.90;;;;;;5070918;28;20024;-77
2024/01/19 03:15:34;;;;;;;8.30;3.30;;;-0.10;99.90;;;;;;5070740;28;20042;-77
2024/01/19 03:18:00;;;;;;;6.40;3.22;;;-0.10;99.90;;;;;;5070498;28;20388;-77
2024/01/19 03:20:26;;;;;;;4.88;2.78;;;-0.10;99.90;;;;;;5070351;28;20033;-77
2024/01/19 03:22:52;;;;;;;6.55;3.15;;;0.00;99.90;;;;;;5070300;28;20052;-77
2024/01/19 03:25:17;;;;;;;6.88;2.92;;;-0.10;99.90;;;;;;5070074;28;20440;-77
2024/01/19 03:27:43;;;;;;;5.57;2.95;;;-0.10;99.90;;;;;;5052176;28;20028;-77
2024/01/19 03:30:09;;;;;;;5.03;2.83;;;-0.10;99.90;;;;;;5070762;28;20401;-76
2024/01/19 03:32:35;;;;;;;5.10;3.05;;;-0.20;99.90;;;;;;5070281;28;20401;-76
2024/01/19 03:35:00;;;;;;;8.38;3.55;;;-0.20;99.90;;;;;;5069851;28;20043;-76
2024/01/19 03:37:27;;;;;;;7.18;3.03;;;-0.20;99.90;;;;;;5071320;28;20150;-77
2024/01/19 03:39:53;;;;;;;4.22;2.95;;;-0.30;99.90;;;;;;5070649;28;20017;-76
2024/01/19 03:42:19;;;;;;;5.00;3.20;;;-0.30;99.90;;;;;;5053095;28;20458;-77
2024/01/19 03:44:45;;;;;;;6.63;3.17;;;-0.30;99.90;;;;;;5070261;28;20330;-77
2024/01/19 03:47:10;;;;;;;9.10;3.58;;;-0.40;99.90;;;;;;5070688;28;20078;-76
2024/01/19 03:49:36;;;;;;;6.93;3.00;;;-0.40;99.90;;;;;;5070111;28;20497;-77
2024/01/19 03:52:04;;;;;;;4.97;3.15;;;-0.40;99.90;;;;;;5069710;28;20109;-77
2024/01/19 03:54:30;;;;;;;4.38;2.90;;;-0.30;99.90;;;;;;5070213;28;20096;-76
2024/01/19 03:56:59;;;;;;;3.80;2.53;;;-0.30;99.90;;;;;;5069918;28;20024;-76
2024/01/19 03:59:25;;;;;;;5.07;2.65;;;-0.20;99.90;;;;;;5070285;28;20120;-76
2024/01/19 04:01:51;;;;;;;6.75;2.28;;;-0.20;99.90;;;;;;5035300;28;20039;-77
2024/01/19 04:04:16;;;;;;;4.10;2.60;;;-0.10;99.90;;;;;;5069815;28;20334;-76
2024/01/19 04:06:43;;;;;;;6.40;2.10;;;0.00;99.90;;;;;;5051963;28;20033;-76
2024/01/19 04:09:09;;;;;;;5.72;2.20;;;0.10;99.90;;;;;;5070202;28;20194;-76
2024/01/19 04:11:38;;;;;;;8.35;3.20;;;0.10;99.90;;;;;;5070106;28;20146;-76
2024/01/19 04:14:04;;;;;;;3.78;2.42;;;0.10;99.90;;;;;;5069946;28;20032;-76
2024/01/19 04:16:29;;;;;;;4.80;2.40;;;0.10;99.90;;;;;;5069875;28;20045;-76
2024/01/19 04:18:55;;;;;;;4.05;2.17;;;0.20;99.90;;;;;;5069960;28;20040;-76
2024/01/19 04:21:21;;;;;;;6.57;2.70;;;0.10;99.90;;;;;;5070177;28;20036;-76
2024/01/19 04:23:46;;;;;;;10.82;2.50;;;0.20;99.90;;;;;;5070039;28;20085;-76
2024/01/19 04:26:12;;;;;;;8.40;2.40;;;0.30;99.90;;;;;;5070077;28;20040;-76
2024/01/19 04:28:41;;;;;;;5.25;2.67;;;0.30;99.90;;;;;;5069925;28;20020;-76
2024/01/19 04:31:07;;;;;;;5.18;2.40;;;0.30;99.90;;;;;;5069683;28;20028;-76
2024/01/19 04:33:33;;;;;;;5.90;2.63;;;0.40;99.90;;;;;;5070025;28;20419;-76
2024/01/19 04:35:59;;;;;;;6.05;2.28;;;0.40;99.90;;;;;;5069404;28;20101;-76
2024/01/19 04:38:24;;;;;;;4.43;2.17;;;0.50;99.90;;;;;;5055248;28;20063;-76
2024/01/19 04:40:50;;;;;;;6.70;2.38;;;0.50;99.90;;;;;;5073358;28;20037;-76
2024/01/19 04:43:16;;;;;;;4.05;2.28;;;0.50;99.90;;;;;;5074007;28;20032;-76
2024/01/19 04:45:41;;;;;;;3.33;2.03;;;0.50;99.90;;;;;;5074513;28;20043;-77
2024/01/19 04:48:07;;;;;;;5.30;2.75;;;0.50;99.90;;;;;;5073299;28;20029;-77
2024/01/19 04:50:33;;;;;;;7.50;2.20;;;0.40;99.90;;;;;;5073876;28;20484;-77
2024/01/19 04:52:59;;;;;;;6.72;2.33;;;0.50;99.90;;;;;;5073562;28;20091;-76
2024/01/19 04:55:25;;;;;;;5.03;2.20;;;0.50;99.90;;;;;;5054556;28;20040;-76
2024/01/19 04:57:50;;;;;;;3.55;1.80;;;0.60;99.90;;;;;;5073146;28;20064;-76
2024/01/19 05:00:16;;;;;;;7.35;2.10;;;0.60;99.90;;;;;;5055321;28;20040;-76
2024/01/19 05:02:43;;;;;;;3.70;1.85;;;0.60;99.90;;;;;;5073642;28;20024;-76
2024/01/19 05:05:09;;;;;;;4.32;1.95;;;0.60;99.90;;;;;;5072652;28;20407;-76
2024/01/19 05:07:34;;;;;;;5.03;2.13;;;0.70;99.90;;;;;;5073323;28;20032;-76
2024/01/19 05:10:00;;;;;;;5.00;2.20;;;0.70;99.90;;;;;;5072448;28;20078;-76
2024/01/19 05:12:26;;;;;;;5.07;2.10;;;0.60;99.90;;;;;;5072700;28;20089;-76
2024/01/19 05:14:52;;;;;;;5.38;2.10;;;0.60;99.90;;;;;;5072578;28;20082;-76
2024/01/19 05:17:18;;;;;;;5.28;2.08;;;0.60;99.90;;;;;;5072785;28;20347;-76
2024/01/19 05:19:44;;;;;;;7.30;2.20;;;0.70;99.90;;;;;;5072964;28;20025;-76
2024/01/19 05:22:10;;;;;;;3.92;2.20;;;0.80;99.90;;;;;;5072479;28;20032;-76
2024/01/19 05:24:43;;;;;;;2.90;1.85;;;0.80;99.90;;;;;;5072609;28;20115;-76
2024/01/19 05:27:09;;;;;;;4.20;2.03;;;0.80;99.90;;;;;;5072152;28;20627;-76
2024/01/19 05:29:35;;;;;;;5.20;1.75;;;0.80;99.90;;;;;;5072742;28;20024;-76
2024/01/19 05:32:01;;;;;;;5.65;1.92;;;0.80;99.90;;;;;;5072119;28;20032;-76
2024/01/19 05:34:27;;;;;;;5.03;1.90;;;0.80;99.90;;;;;;5072843;28;20028;-76
2024/01/19 05:36:53;;;;;;;3.67;1.50;;;0.80;99.90;;;;;;5072053;28;20063;-76
2024/01/19 05:39:19;;;;;;;5.93;1.83;;;0.80;99.90;;;;;;5073419;28;20036;-76
2024/01/19 05:41:45;;;;;;;3.40;1.75;;;0.80;99.90;;;;;;5073113;28;20032;-76
2024/01/19 05:44:11;;;;;;;4.53;2.08;;;0.90;99.90;;;;;;5072526;28;20107;-76
2024/01/19 05:46:36;;;;;;;6.13;1.77;;;0.90;99.90;;;;;;5073070;28;20020;-76
2024/01/19 05:49:02;;;;;;;3.47;1.77;;;0.90;99.90;;;;;;5072093;28;20021;-76
2024/01/19 05:51:28;;;;;;;5.88;1.80;;;0.90;99.90;;;;;;5073131;28;20031;-76
2024/01/19 05:53:54;;;;;;;5.55;2.20;;;0.90;99.90;;;;;;5072270;28;20036;-77
2024/01/19 05:56:19;;;;;;;4.75;1.85;;;0.90;99.90;;;;;;5073084;28;20036;-76
2024/01/19 05:58:45;;;;;;;2.33;1.88;;;0.90;99.90;;;;;;5073363;28;20040;-76
2024/01/19 06:01:11;;;;;;;6.55;1.77;;;0.90;99.90;;;;;;5072624;28;20436;-77
2024/01/19 06:03:37;;;;;;;3.50;1.55;;;0.90;99.90;;;;;;5072828;28;20476;-76
2024/01/19 06:06:04;;;;;;;2.72;1.70;;;0.90;99.90;;;;;;5054087;28;20466;-76
2024/01/19 06:08:30;;;;;;;3.45;1.50;;;0.80;99.90;;;;;;5072563;28;20081;-76
2024/01/19 06:10:56;;;;;;;2.42;1.40;;;0.90;99.90;;;;;;5071766;28;20361;-76
2024/01/19 06:13:23;;;;;;;4.97;1.85;;;0.90;99.90;;;;;;5072380;28;20033;-77
2024/01/19 06:15:49;;;;;;;4.15;2.05;;;0.90;99.90;;;;;;5072325;28;20032;-76
2024/01/19 06:18:14;;;;;;;2.28;1.20;;;1.00;99.90;;;;;;5072011;28;20109;-76
2024/01/19 06:20:43;;;;;;;5.18;2.45;;;1.00;99.90;;;;;;5072403;28;20032;-76
2024/01/19 06:23:12;;;;;;;8.32;1.75;;;1.00;99.90;;;;;;5071831;28;20024;-76
2024/01/19 06:25:39;;;;;;;6.00;1.85;;;1.00;99.90;;;;;;5071892;28;20418;-76
2024/01/19 06:28:09;;;;;;;6.38;1.95;;;0.90;99.90;;;;;;5071661;28;20029;-77
2024/01/19 06:30:35;;;;;;;2.70;1.40;;;0.80;99.90;;;;;;5053849;28;20024;-77
2024/01/19 06:33:02;;;;;;;3.38;1.30;;;0.80;99.90;;;;;;5071282;28;20035;-77
2024/01/19 06:35:28;;;;;;;5.55;1.80;;;0.80;99.90;;;;;;5071880;28;20120;-76
2024/01/19 06:37:54;;;;;;;2.53;1.25;;;0.80;99.90;;;;;;5071498;28;20155;-76
2024/01/19 06:40:19;;;;;;;3.78;1.52;;;0.70;99.90;;;;;;5071626;28;20021;-76
2024/01/19 06:42:46;;;;;;;4.38;2.05;;;0.80;99.90;;;;;;5071652;28;20035;-76
2024/01/19 06:45:14;;;;;;;4.28;1.30;;;0.90;99.90;;;;;;5070962;28;20032;-76
2024/01/19 06:47:39;;;;;;;3.70;1.42;;;1.00;99.90;;;;;;5071808;28;20020;-76
2024/01/19 06:50:06;;;;;;;3.90;1.48;;;0.90;99.90;;;;;;5053061;28;20039;-76
2024/01/19 06:52:31;;;;;;;3.78;1.55;;;0.90;99.90;;;;;;5071795;28;20100;-75
2024/01/19 06:54:57;;;;;;;5.07;1.60;;;0.90;99.90;;;;;;5070775;28;20143;-76
2024/01/19 06:57:23;;;;;;;3.58;1.40;;;0.80;99.90;;;;;;5071339;28;20027;-76
2024/01/19 06:59:49;;;;;;;4.20;1.50;;;0.90;99.90;;;;;;5070896;28;20169;-76
2024/01/19 07:02:16;;;;;;;5.38;1.40;;;0.80;99.90;;;;;;5070664;28;20039;-76
2024/01/19 07:04:42;;;;;;;2.92;1.10;;;0.80;99.90;;;;;;5072278;28;20025;-78
2024/01/19 07:07:08;;;;;;;4.57;1.50;;;0.70;99.90;;;;;;5071247;28;20090;-77
2024/01/19 07:09:33;;;;;;;3.72;1.52;;;0.70;99.90;;;;;;5071356;28;20028;-78
2024/01/19 07:11:59;;;;;;;2.67;1.23;;;0.70;99.90;;;;;;5070369;28;20039;-76
2024/01/19 07:14:25;;;;;;;3.85;1.30;;;0.70;99.90;;;;;;5071037;28;20365;-77
2024/01/19 07:16:51;;;;;;;2.45;1.33;;;0.70;99.90;;;;;;5054131;28;20032;-78
2024/01/19 07:19:17;;;;;;;5.32;1.30;;;0.70;99.90;;;;;;5073396;28;20354;-78
2024/01/19 07:21:43;;;;;;;5.47;1.42;;;0.70;99.90;;;;;;5055905;28;20031;-78
2024/01/19 07:24:11;;;;;;;5.32;1.63;;;0.60;99.90;;;;;;5055471;28;20135;-79
2024/01/19 07:26:37;;;;;;;3.78;1.40;;;0.60;99.90;;;;;;5073163;28;20028;-78
2024/01/19 07:29:06;;;;;;;4.00;1.20;;;0.60;99.90;;;;;;5073645;28;20027;-79
2024/01/19 07:31:33;;;;;;;6.07;1.52;;;0.50;99.90;;;;;;5055754;28;20355;-79
2024/01/19 07:33:59;;;;;;;3.58;1.20;;;0.40;99.90;;;;;;5071862;28;20032;-79
2024/01/19 07:36:25;;;;;;;3.53;1.13;;;0.40;99.90;;;;;;5071318;28;20412;-79
2024/01/19 07:38:50;;;;;;;3.63;1.30;;;0.40;99.90;;;;;;5071883;28;20153;-78
2024/01/19 07:41:16;;;;;;;1.67;1.17;;;0.40;99.90;;;;;;5070922;28;20197;-79
2024/01/19 07:43:42;;;;;;;3.53;1.25;;;0.40;99.90;;;;;;5053163;28;20335;-79
2024/01/19 07:46:08;;;;;;;2.83;1.20;;;0.40;99.90;;;;;;5072117;28;20036;-78
2024/01/19 07:48:34;;;;;;;2.13;1.25;;;0.40;99.90;;;;;;5075991;28;20021;-79
2024/01/19 07:51:00;;;;;;;3.78;1.63;;;0.30;99.90;;;;;;5074696;28;20099;-78
2024/01/19 07:53:27;;;;;;;6.35;2.47;;;0.30;99.90;;;;;;5076012;28;20032;-78
2024/01/19 07:55:53;;;;;;;5.15;1.90;;;0.30;99.90;;;;;;5075637;28;20054;-77
2024/01/19 07:58:19;;;;;;;4.82;1.70;;;0.30;99.90;;;;;;5074997;28;20466;-77
2024/01/19 08:00:45;;;;;;;2.95;1.52;;;0.20;99.90;;;;;;5055097;28;20024;-77
2024/01/19 08:03:11;;;;;;;3.33;1.60;;;0.10;99.90;;;;;;5075752;28;20473;-78
2024/01/19 08:05:38;;;;;;;7.10;2.13;;;0.00;99.90;;;;;;5075779;28;20017;-77
2024/01/19 08:08:05;;;;;;;4.32;1.30;;;0.00;99.90;;;;;;5054600;28;20024;-78
2024/01/19 08:10:34;;;;;;;2.03;1.23;;;0.00;99.90;;;;;;5072411;28;20047;-78
2024/01/19 08:13:00;;;;;;;4.28;1.30;;;0.10;99.90;;;;;;5075915;28;20068;-78
2024/01/19 08:15:26;;;;;;;3.30;1.10;;;0.10;99.90;;;;;;5076402;28;20036;-78
2024/01/19 08:17:51;;;;;;;2.47;0.88;;;0.20;99.90;;;;;;5074962;28;20425;-78
2024/01/19 08:20:17;;;;;;;2.25;0.90;;;0.30;99.90;;;;;;5074040;28;20929;-77
2024/01/19 08:22:43;;;;;;;3.75;1.23;;;0.40;99.90;;;;;;5056444;28;20025;-78
2024/01/19 08:25:09;;;;;;;5.47;1.30;;;0.50;99.90;;;;;;5075747;28;20171;-78
2024/01/19 08:27:39;;;;;;;6.70;1.20;;;0.60;99.90;;;;;;5078060;28;20047;-78
2024/01/19 08:30:06;;;;;;;4.05;1.33;;;0.60;99.90;;;;;;5077290;28;20048;-78
2024/01/19 08:32:31;;;;;;;3.00;1.20;;;0.60;99.90;;;;;;5077427;28;20036;-78
2024/01/19 08:34:57;;;;;;;2.72;1.63;;;0.60;99.90;;;;;;5076664;28;20036;-78
2024/01/19 08:37:23;;;;;;;6.50;1.48;;;0.60;99.90;;;;;;5076085;28;20086;-78
2024/01/19 08:39:49;;;;;;;1.80;1.10;;;0.60;99.90;;;;;;5058254;28;20070;-78
2024/01/19 08:42:14;;;;;;;4.40;1.58;;;0.60;99.90;;;;;;5056404;28;20029;-78
2024/01/19 08:44:44;;;;;;;11.63;3.50;;;0.60;99.90;;;;;;5055936;28;20036;-78
2024/01/19 08:47:11;;;;;;;8.38;2.25;;;0.60;99.90;;;;;;5073670;28;20418;-78
2024/01/19 08:49:36;;;;;;;5.00;2.00;;;0.60;99.90;;;;;;5074520;28;20025;-77
2024/01/19 08:52:02;;;;;;;4.78;1.40;;;0.70;99.90;;;;;;5074766;28;20048;-78
2024/01/19 08:54:28;;;;;;;3.72;1.58;;;0.70;99.90;;;;;;5075223;28;20049;-78
2024/01/19 08:56:55;;;;;;;4.55;1.30;;;0.80;99.90;;;;;;5057301;28;20182;-78
2024/01/19 08:59:22;;;;;;;3.00;1.23;;;0.90;99.90;;;;;;5073020;28;20477;-78
2024/01/19 09:01:53;;;;;;;2.17;1.10;;;1.00;99.90;;;;;;5075290;28;20032;-78
2024/01/19 09:04:19;;;;;;;2.28;1.40;;;1.20;99.90;;;;;;5074850;28;20032;-78
2024/01/19 09:06:44;;;;;;;5.57;1.20;;;1.20;99.90;;;;;;5057925;28;20025;-78
2024/01/19 09:09:10;;;;;;;3.28;1.42;;;1.40;99.90;;;;;;5056587;28;20523;-78
2024/01/19 09:11:36;;;;;;;3.28;1.10;;;1.40;99.90;;;;;;5075682;28;20024;-78
2024/01/19 09:14:02;;;;;;;1.35;1.00;;;1.50;99.90;;;;;;5075057;28;20100;-79
2024/01/19 09:16:28;;;;;;;4.40;1.33;;;1.50;99.90;;;;;;5074283;28;20032;-77
2024/01/19 09:18:53;;;;;;;2.78;1.40;;;1.60;99.90;;;;;;5074814;28;20047;-78
2024/01/19 09:21:19;;;;;;;2.15;1.05;;;1.60;99.90;;;;;;5074274;28;20027;-78
2024/01/19 09:23:45;;;;;;;2.45;1.20;;;1.50;99.90;;;;;;5074566;28;20066;-76
2024/01/19 09:26:23;;;;;;;4.85;1.30;;;1.60;99.90;;;;;;5074953;28;20124;-75
2024/01/19 09:28:49;;;;;;;3.17;1.27;;;1.60;99.90;;;;;;5074863;28;20442;-75
2024/01/19 09:31:15;;;;;;;4.32;1.40;;;1.70;99.90;;;;;;5074334;28;20101;-76
2024/01/19 09:33:41;;;;;;;4.43;1.98;;;1.80;99.90;;;;;;5074911;28;20036;-76
2024/01/19 09:36:08;;;;;;;4.10;1.50;;;1.90;99.90;;;;;;5073935;28;20068;-79
2024/01/19 09:38:37;;;;;;;3.67;1.95;;;1.90;99.90;;;;;;5077161;28;20186;-78
2024/01/19 09:41:15;;;;;;;2.30;1.40;;;2.10;99.90;;;;;;5078307;28;20040;-78
2024/01/19 09:43:44;;;;;;;4.63;1.38;;;2.20;99.90;;;;;;5077237;28;20032;-77
2024/01/19 09:46:19;;;;;;;5.13;1.58;;;2.20;99.90;;;;;;5076541;28;20039;-77
2024/01/19 09:49:02;;;;;;;5.07;1.30;;;2.30;99.90;;;;;;5078359;28;20028;-78
2024/01/19 09:51:48;;;;;;;3.13;1.40;;;2.30;99.90;;;;;;5059930;28;20466;-78
2024/01/19 09:54:22;;;;;;;4.40;1.20;;;2.40;99.90;;;;;;5077039;28;20041;-78
2024/01/19 09:56:48;;;;;;;2.75;1.25;;;2.40;99.90;;;;;;5075572;28;20067;-77
2024/01/19 09:59:15;;;;;;;6.32;1.25;;;2.40;99.90;;;;;;5073427;28;20036;-77
2024/01/19 10:01:41;;;;;;;2.85;1.08;;;2.40;99.90;;;;;;5073746;28;20025;-77
2024/01/19 10:04:13;;;;;;;4.53;1.15;;;2.50;99.90;;;;;;5073272;28;20104;-78
2024/01/19 10:06:39;;;;;;;3.40;1.10;;;2.50;99.90;;;;;;5073562;28;20036;-78
2024/01/19 10:09:05;;;;;;;3.15;0.98;;;2.50;99.90;;;;;;5074221;28;20032;-78
2024/01/19 10:11:32;;;;;;;2.00;0.70;;;2.60;99.90;;;;;;5073552;28;20074;-78
2024/01/19 10:13:58;;;;;;;4.75;1.33;;;2.60;99.90;;;;;;5073314;28;20100;-77
2024/01/19 10:16:23;;;;;;;3.55;1.00;;;2.70;99.90;;;;;;5072988;28;20064;-78
2024/01/19 10:18:49;;;;;;;3.35;1.13;;;2.70;99.90;;;;;;5073881;28;20080;-75
2024/01/19 10:21:27;;;;;;;4.43;1.13;;;2.80;99.90;;;;;;5074250;28;20093;-76
2024/01/19 10:24:15;;;;;;;3.42;1.20;;;2.80;99.90;;;;;;5077011;28;20028;-76
2024/01/19 10:26:51;;;;;;;1.80;0.93;;;2.90;99.90;;;;;;5075348;28;20350;-76
2024/01/19 10:29:17;;;;;;;2.33;0.80;;;2.90;99.90;;;;;;5075126;28;20091;-76
2024/01/19 10:31:45;;;;;;;4.57;0.90;;;2.90;99.90;;;;;;5075981;28;20408;-76
2024/01/19 10:34:22;;;;;;;3.47;1.00;;;3.00;99.90;;;;;;5073704;28;20032;-76
2024/01/19 10:36:49;;;;;;;2.38;0.93;;;3.10;99.90;;;;;;5075520;28;20036;-76
2024/01/19 10:39:30;;;;;;;3.30;0.80;;;3.20;99.90;;;;;;5056410;28;20120;-76
2024/01/19 10:42:07;;;;;;;1.63;0.85;;;3.20;99.90;;;;;;5074297;28;20466;-76
2024/01/19 10:44:33;;;;;;;3.53;1.00;;;3.30;99.90;;;;;;5074524;28;20028;-75
2024/01/19 10:46:59;;;;;;;2.75;1.42;;;3.40;99.90;;;;;;5057325;28;20054;-76
2024/01/19 10:49:25;;;;;;;4.57;1.27;;;3.50;99.90;;;;;;5056938;28;20041;-76
2024/01/19 10:51:52;;;;;;;4.10;1.70;;;3.40;99.90;;;;;;5075654;28;20028;-76
2024/01/19 10:54:27;;;;;;;4.28;1.30;;;3.40;99.90;;;;;;5074967;28;20059;-76
2024/01/19 10:57:09;;;;;;;4.28;1.30;;;3.40;99.90;;;;;;5075230;28;20047;-76
2024/01/19 10:59:35;;;;;;;4.93;1.48;;;3.40;99.90;;;;;;5057868;28;20025;-76
2024/01/19 11:02:04;;;;;;;3.00;1.42;;;3.50;99.90;;;;;;5075621;28;20086;-76
2024/01/19 11:04:31;;;;;;;3.25;1.15;;;3.60;99.90;;;;;;5075882;28;20039;-77
2024/01/19 11:06:57;;;;;;;1.50;1.05;;;3.50;99.90;;;;;;5075578;28;20107;-76
2024/01/19 11:09:23;;;;;;;12.10;1.55;;;3.60;99.90;;;;;;5074206;28;20052;-77
2024/01/19 11:11:55;;;;;;;2.35;1.20;;;3.60;99.90;;;;;;5056504;28;20020;-77
2024/01/19 11:14:26;;;;;;;3.45;1.00;;;3.60;99.90;;;;;;5075304;28;20116;-77
2024/01/19 11:16:54;;;;;;;2.17;1.00;;;3.60;99.90;;;;;;5075100;28;20107;-76
2024/01/19 11:19:22;;;;;;;4.50;1.10;;;3.70;99.90;;;;;;5075096;28;20381;-76
2024/01/19 11:21:48;;;;;;;3.03;1.58;;;3.60;99.90;;;;;;5058570;28;20020;-76
2024/01/19 11:24:20;;;;;;;2.65;0.95;;;3.60;99.90;;;;;;5074485;28;20028;-77
2024/01/19 11:26:58;;;;;;;2.83;1.10;;;3.80;99.90;;;;;;5075217;28;20137;-77
2024/01/19 11:29:33;;;;;;;2.00;0.80;;;3.80;99.90;;;;;;5074247;28;20107;-77
2024/01/19 11:32:00;;;;;;;2.05;0.70;;;3.90;99.90;;;;;;5073152;28;20031;-77
2024/01/19 11:34:46;;;;;;;0.88;0.65;;;3.90;99.90;;;;;;5070711;28;20028;-78
2024/01/19 11:37:46;;;;;;;3.60;0.60;;;3.90;99.90;;;;;;5070851;28;20107;-77
2024/01/19 11:40:34;;;;;;;1.08;0.73;;;3.90;99.90;;;;;;5072914;28;20481;-76
2024/01/19 11:43:00;;;;;;;2.65;1.02;;;3.90;99.90;;;;;;5058664;28;20029;-78
2024/01/19 11:45:42;;;;;;;3.20;1.10;;;3.90;99.90;;;;;;5073656;28;20466;-77
2024/01/19 11:48:09;;;;;;;1.00;0.90;;;3.90;99.90;;;;;;5074450;28;20107;-78
2024/01/19 11:50:46;;;;;;;3.30;0.60;;;3.90;99.90;;;;;;5074189;28;20036;-78
2024/01/19 11:53:13;;;;;;;2.20;1.00;;;4.00;99.90;;;;;;5073825;28;20032;-78
2024/01/19 11:55:45;;;;;;;0.93;0.70;;;4.20;99.90;;;;;;5074128;28;20104;-78
2024/01/19 11:58:34;;;;;;;2.83;0.70;;;4.20;99.90;;;;;;5073885;28;20040;-77
2024/01/19 12:01:02;;;;;;;2.88;0.70;;;4.20;99.90;;;;;;5074597;28;20033;-77
2024/01/19 12:03:29;;;;;;;1.95;0.60;;;4.30;99.90;;;;;;5070383;28;20032;-79
2024/01/19 12:05:57;;;;;;;2.30;0.65;;;4.30;99.90;;;;;;5070971;28;20529;-78
2024/01/19 12:08:24;;;;;;;1.67;0.82;;;4.20;99.90;;;;;;5052836;28;20428;-78
2024/01/19 12:11:00;;;;;;;3.70;0.68;;;4.30;99.90;;;;;;5073796;28;20354;-78
2024/01/19 12:13:26;;;;;;;5.38;0.75;;;4.30;99.90;;;;;;5075102;28;20447;-77
2024/01/19 12:15:52;;;;;;;3.10;0.68;;;4.30;99.90;;;;;;5074716;28;20033;-78
2024/01/19 12:18:18;;;;;;;4.13;0.85;;;4.40;99.90;;;;;;5073546;28;20050;-78
2024/01/19 12:20:45;;;;;;;1.48;0.68;;;4.40;99.90;;;;;;5075673;28;20025;-77
2024/01/19 12:23:14;;;;;;;5.88;1.20;;;4.30;99.90;;;;;;5075381;28;20029;-77
2024/01/19 12:25:39;;;;;;;0.80;0.68;;;4.40;99.90;;;;;;5075354;28;20036;-77
2024/01/19 12:28:06;;;;;;;1.55;0.80;;;4.50;99.90;;;;;;5057231;28;20477;-77
2024/01/19 12:30:34;;;;;;;2.60;1.10;;;4.50;99.90;;;;;;5073537;28;20029;-77
2024/01/19 12:33:35;;;;;;;1.92;1.13;;;4.60;99.90;;;;;;5073042;28;20035;-77
2024/01/19 12:36:03;;;;;;;1.13;0.82;;;4.60;99.90;;;;;;4992750;28;20042;-77
2024/01/19 12:38:29;;;;;;;4.22;1.00;;;4.60;99.90;;;;;;5059131;28;20040;-78
2024/01/19 12:40:56;;;;;;;2.72;1.10;;;4.70;99.90;;;;;;5074974;28;20047;-77
2024/01/19 12:43:22;;;;;;;5.60;1.20;;;4.70;99.90;;;;;;5073919;28;20028;-78
2024/01/19 12:45:48;;;;;;;1.55;0.98;;;4.70;99.90;;;;;;5073958;28;20064;-78
2024/01/19 12:48:15;;;;;;;5.13;0.80;;;4.60;99.90;;;;;;5071996;28;20071;-78
2024/01/19 12:50:41;;;;;;;1.45;1.08;;;4.60;99.90;;;;;;5035975;28;20470;-77